Station Historical Data
Daily Summary for January 24, 2017 Units:  Both    English   Metric
« Previous Day
Next Day »
Daily Weekly Monthly Yearly Custom
  High: Low: Average:
Temperature: 34.4 °F /  1.3 °C 31.4 °F /  -0.3 °C 32.7 °F /  0.4 °C
Dew Point: 30.3 °F /  -0.9 °C 27.9 °F /  -2.3 °C 29.4 °F /  -1.4 °C
Humidity: 93% 78% 88%
Wind Speed: 12.0mph /  19.3km/h - 3.2mph /  5.1km/h
Wind Gust: 15.0mph /  24.1km/h - -
Wind- - SSW
Pressure: 29.73 in /  1006.7 hPa 29.67 in /  1004.6 hPa -
Precipitation: 0.00 in /  0 mm    
Historical Graphs
 
 
Tabular Data for January 24, 2017
Time Temperature Dew Point Pressure Wind Wind Speed Wind Gust Humidity Rainfall Rate (Hourly)
00:04 34.4 °F /  1.3 °C 28.2 °F /  -2.1 °C 29.72in /  1006.3hPa NE 7.0mph /  11.3km/h 13.0mph /  20.9km/h 78% 0.00in /  0mm
00:09 34.4 °F /  1.3 °C 28.2 °F /  -2.1 °C 29.72in /  1006.3hPa NE 6.0mph /  9.7km/h 10.0mph /  16.1km/h 78% 0.00in /  0mm
00:14 34.4 °F /  1.3 °C 28.2 °F /  -2.1 °C 29.72in /  1006.3hPa ENE 3.0mph /  4.8km/h 13.0mph /  20.9km/h 78% 0.00in /  0mm
00:19 34.4 °F /  1.3 °C 28.2 °F /  -2.1 °C 29.72in /  1006.3hPa NE 6.0mph /  9.7km/h 12.0mph /  19.3km/h 78% 0.00in /  0mm
00:24 34.4 °F /  1.3 °C 28.2 °F /  -2.1 °C 29.72in /  1006.3hPa ENE 3.0mph /  4.8km/h 13.0mph /  20.9km/h 78% 0.00in /  0mm
00:29 34.4 °F /  1.3 °C 28.2 °F /  -2.1 °C 29.72in /  1006.3hPa NE 6.0mph /  9.7km/h 11.0mph /  17.7km/h 78% 0.00in /  0mm
00:34 34.3 °F /  1.3 °C 28.2 °F /  -2.1 °C 29.72in /  1006.3hPa NE 6.0mph /  9.7km/h 11.0mph /  17.7km/h 78% 0.00in /  0mm
00:39 34.3 °F /  1.3 °C 28.2 °F /  -2.1 °C 29.71in /  1006hPa NE 6.0mph /  9.7km/h 15.0mph /  24.1km/h 78% 0.00in /  0mm
00:44 34.3 °F /  1.3 °C 28.2 °F /  -2.1 °C 29.72in /  1006.3hPa NE 5.0mph /  8km/h 15.0mph /  24.1km/h 78% 0.00in /  0mm
00:49 34.3 °F /  1.3 °C 28.2 °F /  -2.1 °C 29.71in /  1006hPa NE 7.0mph /  11.3km/h 12.0mph /  19.3km/h 78% 0.00in /  0mm
00:54 34.3 °F /  1.3 °C 28.2 °F /  -2.1 °C 29.71in /  1006hPa NE 4.0mph /  6.4km/h 9.0mph /  14.5km/h 78% 0.00in /  0mm
00:59 34.3 °F /  1.3 °C 28.2 °F /  -2.1 °C 29.71in /  1006hPa NE 3.0mph /  4.8km/h 10.0mph /  16.1km/h 78% 0.00in /  0mm
01:04 34.3 °F /  1.3 °C 28.2 °F /  -2.1 °C 29.71in /  1006hPa ENE 7.0mph /  11.3km/h 10.0mph /  16.1km/h 78% 0.00in /  0mm
01:09 34.2 °F /  1.2 °C 28.1 °F /  -2.2 °C 29.71in /  1006hPa NE 5.0mph /  8km/h 10.0mph /  16.1km/h 78% 0.00in /  0mm
01:14 34.3 °F /  1.3 °C 28.2 °F /  -2.1 °C 29.71in /  1006hPa NE 5.0mph /  8km/h 10.0mph /  16.1km/h 78% 0.00in /  0mm
01:19 34.2 °F /  1.2 °C 28.1 °F /  -2.2 °C 29.70in /  1005.6hPa NE 6.0mph /  9.7km/h 9.0mph /  14.5km/h 78% 0.00in /  0mm
01:24 34.2 °F /  1.2 °C 28.4 °F /  -2 °C 29.71in /  1006hPa NE 2.0mph /  3.2km/h 8.0mph /  12.9km/h 79% 0.00in /  0mm
01:29 34.1 °F /  1.2 °C 28.3 °F /  -2.1 °C 29.70in /  1005.6hPa NE 4.0mph /  6.4km/h 9.0mph /  14.5km/h 79% 0.00in /  0mm
01:34 34.1 °F /  1.2 °C 28.3 °F /  -2.1 °C 29.70in /  1005.6hPa NE 8.0mph /  12.9km/h 9.0mph /  14.5km/h 79% 0.00in /  0mm
01:39 34.1 °F /  1.2 °C 28.0 °F /  -2.2 °C 29.70in /  1005.6hPa NE 5.0mph /  8km/h 10.0mph /  16.1km/h 78% 0.00in /  0mm
01:44 34.1 °F /  1.2 °C 28.0 °F /  -2.2 °C 29.70in /  1005.6hPa NE 6.0mph /  9.7km/h 11.0mph /  17.7km/h 78% 0.00in /  0mm
01:49 34.0 °F /  1.1 °C 28.2 °F /  -2.1 °C 29.70in /  1005.6hPa NE 6.0mph /  9.7km/h 11.0mph /  17.7km/h 79% 0.00in /  0mm
01:54 34.1 °F /  1.2 °C 28.0 °F /  -2.2 °C 29.70in /  1005.6hPa NE 5.0mph /  8km/h 10.0mph /  16.1km/h 78% 0.00in /  0mm
01:59 34.0 °F /  1.1 °C 27.9 °F /  -2.3 °C 29.70in /  1005.6hPa NE 5.0mph /  8km/h 11.0mph /  17.7km/h 78% 0.00in /  0mm
02:04 34.0 °F /  1.1 °C 27.9 °F /  -2.3 °C 29.70in /  1005.6hPa NE 4.0mph /  6.4km/h 9.0mph /  14.5km/h 78% 0.00in /  0mm
02:09 34.0 °F /  1.1 °C 28.2 °F /  -2.1 °C 29.70in /  1005.6hPa East 5.0mph /  8km/h 10.0mph /  16.1km/h 79% 0.00in /  0mm
02:14 34.0 °F /  1.1 °C 28.2 °F /  -2.1 °C 29.70in /  1005.6hPa NE 7.0mph /  11.3km/h 11.0mph /  17.7km/h 79% 0.00in /  0mm
02:19 34.0 °F /  1.1 °C 28.2 °F /  -2.1 °C 29.70in /  1005.6hPa NNE 7.0mph /  11.3km/h 11.0mph /  17.7km/h 79% 0.00in /  0mm
02:24 33.9 °F /  1.1 °C 28.4 °F /  -2 °C 29.70in /  1005.6hPa NE 3.0mph /  4.8km/h 9.0mph /  14.5km/h 80% 0.00in /  0mm
02:29 33.8 °F /  1 °C 28.3 °F /  -2.1 °C 29.70in /  1005.6hPa NE 6.0mph /  9.7km/h 10.0mph /  16.1km/h 80% 0.00in /  0mm
02:34 33.8 °F /  1 °C 28.6 °F /  -1.9 °C 29.70in /  1005.6hPa NE 5.0mph /  8km/h 10.0mph /  16.1km/h 81% 0.00in /  0mm
02:39 33.7 °F /  0.9 °C 28.5 °F /  -1.9 °C 29.70in /  1005.6hPa NE 5.0mph /  8km/h 13.0mph /  20.9km/h 81% 0.00in /  0mm
02:44 33.5 °F /  0.8 °C 28.3 °F /  -2.1 °C 29.70in /  1005.6hPa NE 7.0mph /  11.3km/h 13.0mph /  20.9km/h 81% 0.00in /  0mm
02:49 33.5 °F /  0.8 °C 28.6 °F /  -1.9 °C 29.70in /  1005.6hPa NE 6.0mph /  9.7km/h 13.0mph /  20.9km/h 82% 0.00in /  0mm
02:54 33.5 °F /  0.8 °C 28.9 °F /  -1.7 °C 29.70in /  1005.6hPa NE 5.0mph /  8km/h 9.0mph /  14.5km/h 83% 0.00in /  0mm
02:59 33.3 °F /  0.7 °C 28.7 °F /  -1.8 °C 29.70in /  1005.6hPa NE 5.0mph /  8km/h 10.0mph /  16.1km/h 83% 0.00in /  0mm
03:04 33.3 °F /  0.7 °C 28.7 °F /  -1.8 °C 29.70in /  1005.6hPa NE 6.0mph /  9.7km/h 10.0mph /  16.1km/h 83% 0.00in /  0mm
03:09 33.2 °F /  0.7 °C 28.9 °F /  -1.7 °C 29.69in /  1005.3hPa NE 5.0mph /  8km/h 9.0mph /  14.5km/h 84% 0.00in /  0mm
03:14 33.1 °F /  0.6 °C 28.8 °F /  -1.8 °C 29.69in /  1005.3hPa ENE 5.0mph /  8km/h 9.0mph /  14.5km/h 84% 0.00in /  0mm
03:19 33.0 °F /  0.6 °C 29.0 °F /  -1.7 °C 29.69in /  1005.3hPa ENE 4.0mph /  6.4km/h 8.0mph /  12.9km/h 85% 0.00in /  0mm
03:24 33.0 °F /  0.6 °C 29.0 °F /  -1.7 °C 29.69in /  1005.3hPa NE 7.0mph /  11.3km/h 9.0mph /  14.5km/h 85% 0.00in /  0mm
03:29 32.9 °F /  0.5 °C 29.2 °F /  -1.6 °C 29.69in /  1005.3hPa ENE 7.0mph /  11.3km/h 8.0mph /  12.9km/h 86% 0.00in /  0mm
03:34 32.8 °F /  0.4 °C 29.4 °F /  -1.4 °C 29.69in /  1005.3hPa NE 2.0mph /  3.2km/h 8.0mph /  12.9km/h 87% 0.00in /  0mm
03:39 32.7 °F /  0.4 °C 29.3 °F /  -1.5 °C 29.69in /  1005.3hPa ENE 3.0mph /  4.8km/h 8.0mph /  12.9km/h 87% 0.00in /  0mm
03:44 32.7 °F /  0.4 °C 29.5 °F /  -1.4 °C 29.68in /  1005hPa NE 3.0mph /  4.8km/h 8.0mph /  12.9km/h 88% 0.00in /  0mm
03:49 32.6 °F /  0.3 °C 29.4 °F /  -1.4 °C 29.69in /  1005.3hPa NE 3.0mph /  4.8km/h 8.0mph /  12.9km/h 88% 0.00in /  0mm
03:54 32.5 °F /  0.3 °C 29.3 °F /  -1.5 °C 29.69in /  1005.3hPa NE 4.0mph /  6.4km/h 7.0mph /  11.3km/h 88% 0.00in /  0mm
03:59 32.5 °F /  0.3 °C 29.6 °F /  -1.3 °C 29.69in /  1005.3hPa NE 3.0mph /  4.8km/h 7.0mph /  11.3km/h 89% 0.00in /  0mm
04:04 32.5 °F /  0.3 °C 29.6 °F /  -1.3 °C 29.68in /  1005hPa NE 3.0mph /  4.8km/h 7.0mph /  11.3km/h 89% 0.00in /  0mm
04:09 32.5 °F /  0.3 °C 29.6 °F /  -1.3 °C 29.68in /  1005hPa NE 5.0mph /  8km/h 9.0mph /  14.5km/h 89% 0.00in /  0mm
04:14 32.4 °F /  0.2 °C 29.5 °F /  -1.4 °C 29.68in /  1005hPa NE 4.0mph /  6.4km/h 9.0mph /  14.5km/h 89% 0.00in /  0mm
04:19 32.3 °F /  0.2 °C 29.7 °F /  -1.3 °C 29.68in /  1005hPa NE 3.0mph /  4.8km/h 8.0mph /  12.9km/h 90% 0.00in /  0mm
04:24 32.3 °F /  0.2 °C 29.7 °F /  -1.3 °C 29.68in /  1005hPa NE 2.0mph /  3.2km/h 7.0mph /  11.3km/h 90% 0.00in /  0mm
04:29 32.3 °F /  0.2 °C 29.7 °F /  -1.3 °C 29.68in /  1005hPa NNE 3.0mph /  4.8km/h 7.0mph /  11.3km/h 90% 0.00in /  0mm
04:34 32.3 °F /  0.2 °C 29.7 °F /  -1.3 °C 29.68in /  1005hPa NE 1.0mph /  1.6km/h 4.0mph /  6.4km/h 90% 0.00in /  0mm
04:39 32.3 °F /  0.2 °C 29.7 °F /  -1.3 °C 29.68in /  1005hPa NNE 2.0mph /  3.2km/h 5.0mph /  8km/h 90% 0.00in /  0mm
04:44 32.3 °F /  0.2 °C 30.0 °F /  -1.1 °C 29.68in /  1005hPa NE 2.0mph /  3.2km/h 5.0mph /  8km/h 91% 0.00in /  0mm
04:49 32.2 °F /  0.1 °C 29.9 °F /  -1.2 °C 29.68in /  1005hPa NE 2.0mph /  3.2km/h 7.0mph /  11.3km/h 91% 0.00in /  0mm
04:54 32.2 °F /  0.1 °C 29.9 °F /  -1.2 °C 29.68in /  1005hPa NE 3.0mph /  4.8km/h 7.0mph /  11.3km/h 91% 0.00in /  0mm
04:59 32.2 °F /  0.1 °C 29.9 °F /  -1.2 °C 29.68in /  1005hPa NE 3.0mph /  4.8km/h 6.0mph /  9.7km/h 91% 0.00in /  0mm
05:04 32.2 °F /  0.1 °C 29.9 °F /  -1.2 °C 29.68in /  1005hPa NNE 3.0mph /  4.8km/h 4.0mph /  6.4km/h 91% 0.00in /  0mm
05:09 32.1 °F /  0.1 °C 29.8 °F /  -1.2 °C 29.67in /  1004.6hPa NNE 1.0mph /  1.6km/h 5.0mph /  8km/h 91% 0.00in /  0mm
05:14 32.1 °F /  0.1 °C 29.8 °F /  -1.2 °C 29.67in /  1004.6hPa NNE 2.0mph /  3.2km/h 5.0mph /  8km/h 91% 0.00in /  0mm
05:19 32.1 °F /  0.1 °C 29.8 °F /  -1.2 °C 29.67in /  1004.6hPa NNE 3.0mph /  4.8km/h 5.0mph /  8km/h 91% 0.00in /  0mm
05:24 32.2 °F /  0.1 °C 30.1 °F /  -1.1 °C 29.67in /  1004.6hPa NE 3.0mph /  4.8km/h 6.0mph /  9.7km/h 92% 0.00in /  0mm
05:29 32.2 °F /  0.1 °C 30.1 °F /  -1.1 °C 29.67in /  1004.6hPa NE 2.0mph /  3.2km/h 6.0mph /  9.7km/h 92% 0.00in /  0mm
05:34 32.2 °F /  0.1 °C 30.1 °F /  -1.1 °C 29.67in /  1004.6hPa NNE 2.0mph /  3.2km/h 3.0mph /  4.8km/h 92% 0.00in /  0mm
05:39 32.1 °F /  0.1 °C 30.0 °F /  -1.1 °C 29.68in /  1005hPa North 2.0mph /  3.2km/h 5.0mph /  8km/h 92% 0.00in /  0mm
05:44 32.2 °F /  0.1 °C 30.1 °F /  -1.1 °C 29.67in /  1004.6hPa NNE 2.0mph /  3.2km/h 5.0mph /  8km/h 92% 0.00in /  0mm
05:49 32.3 °F /  0.2 °C 30.2 °F /  -1 °C 29.67in /  1004.6hPa North 2.0mph /  3.2km/h 5.0mph /  8km/h 92% 0.00in /  0mm
05:54 32.2 °F /  0.1 °C 30.1 °F /  -1.1 °C 29.67in /  1004.6hPa NNE 3.0mph /  4.8km/h 4.0mph /  6.4km/h 92% 0.00in /  0mm
05:59 32.3 °F /  0.2 °C 30.2 °F /  -1 °C 29.67in /  1004.6hPa NNE 3.0mph /  4.8km/h 4.0mph /  6.4km/h 92% 0.00in /  0mm
06:04 32.2 °F /  0.1 °C 30.1 °F /  -1.1 °C 29.68in /  1005hPa NE 3.0mph /  4.8km/h 8.0mph /  12.9km/h 92% 0.00in /  0mm
06:09 32.2 °F /  0.1 °C 30.1 °F /  -1.1 °C 29.68in /  1005hPa NE 4.0mph /  6.4km/h 6.0mph /  9.7km/h 92% 0.00in /  0mm
06:14 32.2 °F /  0.1 °C 30.1 °F /  -1.1 °C 29.67in /  1004.6hPa NNE 3.0mph /  4.8km/h 5.0mph /  8km/h 92% 0.00in /  0mm
06:19 32.1 °F /  0.1 °C 30.0 °F /  -1.1 °C 29.68in /  1005hPa NNE 3.0mph /  4.8km/h 6.0mph /  9.7km/h 92% 0.00in /  0mm
06:24 32.1 °F /  0.1 °C 30.0 °F /  -1.1 °C 29.68in /  1005hPa NNE 3.0mph /  4.8km/h 6.0mph /  9.7km/h 92% 0.00in /  0mm
06:29 32.1 °F /  0.1 °C 30.0 °F /  -1.1 °C 29.68in /  1005hPa NNE 3.0mph /  4.8km/h 5.0mph /  8km/h 92% 0.00in /  0mm
06:34 32.1 °F /  0.1 °C 30.0 °F /  -1.1 °C 29.68in /  1005hPa NNE 3.0mph /  4.8km/h 5.0mph /  8km/h 92% 0.00in /  0mm
06:39 32.0 °F /  0 °C 29.9 °F /  -1.2 °C 29.68in /  1005hPa NNE 3.0mph /  4.8km/h 6.0mph /  9.7km/h 92% 0.00in /  0mm
06:44 32.0 °F /  0 °C 29.9 °F /  -1.2 °C 29.68in /  1005hPa NNE 3.0mph /  4.8km/h 6.0mph /  9.7km/h 92% 0.00in /  0mm
06:49 32.0 °F /  0 °C 29.9 °F /  -1.2 °C 29.68in /  1005hPa North 3.0mph /  4.8km/h 6.0mph /  9.7km/h 92% 0.00in /  0mm
06:54 32.0 °F /  0 °C 29.9 °F /  -1.2 °C 29.68in /  1005hPa North 2.0mph /  3.2km/h 5.0mph /  8km/h 92% 0.00in /  0mm
06:59 31.9 °F /  -0.1 °C 29.8 °F /  -1.2 °C 29.68in /  1005hPa NE 2.0mph /  3.2km/h 7.0mph /  11.3km/h 92% 0.00in /  0mm
07:04 31.9 °F /  -0.1 °C 29.8 °F /  -1.2 °C 29.68in /  1005hPa NNE 3.0mph /  4.8km/h 4.0mph /  6.4km/h 92% 0.00in /  0mm
07:09 31.9 °F /  -0.1 °C 29.8 °F /  -1.2 °C 29.69in /  1005.3hPa North 3.0mph /  4.8km/h 7.0mph /  11.3km/h 92% 0.00in /  0mm
07:14 31.9 °F /  -0.1 °C 29.8 °F /  -1.2 °C 29.69in /  1005.3hPa North 2.0mph /  3.2km/h 6.0mph /  9.7km/h 92% 0.00in /  0mm
07:19 31.8 °F /  -0.1 °C 29.7 °F /  -1.3 °C 29.69in /  1005.3hPa NNE 5.0mph /  8km/h 6.0mph /  9.7km/h 92% 0.00in /  0mm
07:24 31.7 °F /  -0.2 °C 29.6 °F /  -1.3 °C 29.69in /  1005.3hPa NNE 3.0mph /  4.8km/h 6.0mph /  9.7km/h 92% 0.00in /  0mm
07:29 31.7 °F /  -0.2 °C 29.6 °F /  -1.3 °C 29.69in /  1005.3hPa NNE 3.0mph /  4.8km/h 6.0mph /  9.7km/h 92% 0.00in /  0mm
07:34 31.7 °F /  -0.2 °C 29.6 °F /  -1.3 °C 29.70in /  1005.6hPa NNE 3.0mph /  4.8km/h 5.0mph /  8km/h 92% 0.00in /  0mm
07:39 31.7 °F /  -0.2 °C 29.6 °F /  -1.3 °C 29.70in /  1005.6hPa NNE 3.0mph /  4.8km/h 7.0mph /  11.3km/h 92% 0.00in /  0mm
07:44 31.7 °F /  -0.2 °C 29.6 °F /  -1.3 °C 29.70in /  1005.6hPa NNE 4.0mph /  6.4km/h 7.0mph /  11.3km/h 92% 0.00in /  0mm
07:49 31.6 °F /  -0.2 °C 29.5 °F /  -1.4 °C 29.70in /  1005.6hPa NNE 4.0mph /  6.4km/h 6.0mph /  9.7km/h 92% 0.00in /  0mm
07:54 31.7 °F /  -0.2 °C 29.6 °F /  -1.3 °C 29.70in /  1005.6hPa North 4.0mph /  6.4km/h 7.0mph /  11.3km/h 92% 0.00in /  0mm
07:59 31.6 °F /  -0.2 °C 29.5 °F /  -1.4 °C 29.70in /  1005.6hPa North 3.0mph /  4.8km/h 8.0mph /  12.9km/h 92% 0.00in /  0mm
08:04 31.5 °F /  -0.3 °C 29.4 °F /  -1.4 °C 29.70in /  1005.6hPa NNE 5.0mph /  8km/h 6.0mph /  9.7km/h 92% 0.00in /  0mm
08:09 31.5 °F /  -0.3 °C 29.4 °F /  -1.4 °C 29.70in /  1005.6hPa NNE 3.0mph /  4.8km/h 6.0mph /  9.7km/h 92% 0.00in /  0mm
08:14 31.5 °F /  -0.3 °C 29.4 °F /  -1.4 °C 29.70in /  1005.6hPa North 3.0mph /  4.8km/h 5.0mph /  8km/h 92% 0.00in /  0mm
08:19 31.5 °F /  -0.3 °C 29.4 °F /  -1.4 °C 29.70in /  1005.6hPa North 2.0mph /  3.2km/h 5.0mph /  8km/h 92% 0.00in /  0mm
08:24 31.5 °F /  -0.3 °C 29.7 °F /  -1.3 °C 29.70in /  1005.6hPa North 3.0mph /  4.8km/h 4.0mph /  6.4km/h 93% 0.00in /  0mm
08:29 31.5 °F /  -0.3 °C 29.7 °F /  -1.3 °C 29.70in /  1005.6hPa North 3.0mph /  4.8km/h 6.0mph /  9.7km/h 93% 0.00in /  0mm
08:34 31.4 °F /  -0.3 °C 29.3 °F /  -1.5 °C 29.70in /  1005.6hPa North 3.0mph /  4.8km/h 7.0mph /  11.3km/h 92% 0.00in /  0mm
08:39 31.5 °F /  -0.3 °C 29.4 °F /  -1.4 °C 29.70in /  1005.6hPa North 3.0mph /  4.8km/h 7.0mph /  11.3km/h 92% 0.00in /  0mm
08:44 31.4 °F /  -0.3 °C 29.3 °F /  -1.5 °C 29.70in /  1005.6hPa North 3.0mph /  4.8km/h 6.0mph /  9.7km/h 92% 0.00in /  0mm
08:49 31.4 °F /  -0.3 °C 29.3 °F /  -1.5 °C 29.70in /  1005.6hPa North 3.0mph /  4.8km/h 6.0mph /  9.7km/h 92% 0.00in /  0mm
08:54 31.4 °F /  -0.3 °C 29.3 °F /  -1.5 °C 29.70in /  1005.6hPa North 3.0mph /  4.8km/h 6.0mph /  9.7km/h 92% 0.00in /  0mm
08:59 31.5 °F /  -0.3 °C 29.7 °F /  -1.3 °C 29.70in /  1005.6hPa NNW 1.0mph /  1.6km/h 5.0mph /  8km/h 93% 0.00in /  0mm
09:04 31.4 °F /  -0.3 °C 29.6 °F /  -1.3 °C 29.70in /  1005.6hPa NNE 2.0mph /  3.2km/h 6.0mph /  9.7km/h 93% 0.00in /  0mm
09:09 31.4 °F /  -0.3 °C 29.6 °F /  -1.3 °C 29.70in /  1005.6hPa NNE 4.0mph /  6.4km/h 5.0mph /  8km/h 93% 0.00in /  0mm
09:14 31.4 °F /  -0.3 °C 29.6 °F /  -1.3 °C 29.70in /  1005.6hPa NNE 4.0mph /  6.4km/h 7.0mph /  11.3km/h 93% 0.00in /  0mm
09:19 31.4 °F /  -0.3 °C 29.6 °F /  -1.3 °C 29.70in /  1005.6hPa NNE 3.0mph /  4.8km/h 7.0mph /  11.3km/h 93% 0.00in /  0mm
09:24 31.4 °F /  -0.3 °C 29.6 °F /  -1.3 °C 29.70in /  1005.6hPa North 3.0mph /  4.8km/h 5.0mph /  8km/h 93% 0.00in /  0mm
09:29 31.4 °F /  -0.3 °C 29.6 °F /  -1.3 °C 29.71in /  1006hPa NNE 4.0mph /  6.4km/h 5.0mph /  8km/h 93% 0.00in /  0mm
09:34 31.4 °F /  -0.3 °C 29.6 °F /  -1.3 °C 29.71in /  1006hPa NNE 3.0mph /  4.8km/h 6.0mph /  9.7km/h 93% 0.00in /  0mm
09:39 31.5 °F /  -0.3 °C 29.7 °F /  -1.3 °C 29.71in /  1006hPa North 3.0mph /  4.8km/h 6.0mph /  9.7km/h 93% 0.00in /  0mm
09:44 31.4 °F /  -0.3 °C 29.6 °F /  -1.3 °C 29.71in /  1006hPa North 3.0mph /  4.8km/h 6.0mph /  9.7km/h 93% 0.00in /  0mm
09:49 31.4 °F /  -0.3 °C 29.6 °F /  -1.3 °C 29.71in /  1006hPa North 3.0mph /  4.8km/h 6.0mph /  9.7km/h 93% 0.00in /  0mm
09:54 31.5 °F /  -0.3 °C 29.7 °F /  -1.3 °C 29.70in /  1005.6hPa North 2.0mph /  3.2km/h 5.0mph /  8km/h 93% 0.00in /  0mm
09:59 31.5 °F /  -0.3 °C 29.7 °F /  -1.3 °C 29.70in /  1005.6hPa North 1.0mph /  1.6km/h 7.0mph /  11.3km/h 93% 0.00in /  0mm
10:04 31.4 °F /  -0.3 °C 29.3 °F /  -1.5 °C 29.71in /  1006hPa North 4.0mph /  6.4km/h 6.0mph /  9.7km/h 92% 0.00in /  0mm
10:09 31.4 °F /  -0.3 °C 29.3 °F /  -1.5 °C 29.71in /  1006hPa NW 2.0mph /  3.2km/h 6.0mph /  9.7km/h 92% 0.00in /  0mm
10:14 31.4 °F /  -0.3 °C 29.3 °F /  -1.5 °C 29.71in /  1006hPa North 2.0mph /  3.2km/h 8.0mph /  12.9km/h 92% 0.00in /  0mm
10:19 31.4 °F /  -0.3 °C 29.3 °F /  -1.5 °C 29.71in /  1006hPa North 2.0mph /  3.2km/h 7.0mph /  11.3km/h 92% 0.00in /  0mm
10:24 31.4 °F /  -0.3 °C 29.3 °F /  -1.5 °C 29.71in /  1006hPa North 1.0mph /  1.6km/h 7.0mph /  11.3km/h 92% 0.00in /  0mm
10:29 31.4 °F /  -0.3 °C 29.3 °F /  -1.5 °C 29.70in /  1005.6hPa North 3.0mph /  4.8km/h 7.0mph /  11.3km/h 92% 0.00in /  0mm
10:34 31.5 °F /  -0.3 °C 29.2 °F /  -1.6 °C 29.70in /  1005.6hPa North 3.0mph /  4.8km/h 7.0mph /  11.3km/h 91% 0.00in /  0mm
10:39 31.6 °F /  -0.2 °C 29.5 °F /  -1.4 °C 29.71in /  1006hPa North 3.0mph /  4.8km/h 6.0mph /  9.7km/h 92% 0.00in /  0mm
10:44 31.6 °F /  -0.2 °C 29.3 °F /  -1.5 °C 29.71in /  1006hPa North 3.0mph /  4.8km/h 8.0mph /  12.9km/h 91% 0.00in /  0mm
10:49 31.7 °F /  -0.2 °C 29.4 °F /  -1.4 °C 29.71in /  1006hPa North 4.0mph /  6.4km/h 8.0mph /  12.9km/h 91% 0.00in /  0mm
10:54 31.6 °F /  -0.2 °C 29.3 °F /  -1.5 °C 29.71in /  1006hPa North 4.0mph /  6.4km/h 8.0mph /  12.9km/h 91% 0.00in /  0mm
10:59 31.7 °F /  -0.2 °C 29.4 °F /  -1.4 °C 29.71in /  1006hPa North 3.0mph /  4.8km/h 6.0mph /  9.7km/h 91% 0.00in /  0mm
11:04 31.7 °F /  -0.2 °C 29.4 °F /  -1.4 °C 29.71in /  1006hPa North 2.0mph /  3.2km/h 5.0mph /  8km/h 91% 0.00in /  0mm
11:09 31.8 °F /  -0.1 °C 29.5 °F /  -1.4 °C 29.70in /  1005.6hPa North 2.0mph /  3.2km/h 5.0mph /  8km/h 91% 0.00in /  0mm
11:14 31.7 °F /  -0.2 °C 29.4 °F /  -1.4 °C 29.70in /  1005.6hPa North 2.0mph /  3.2km/h 5.0mph /  8km/h 91% 0.00in /  0mm
11:19 31.6 °F /  -0.2 °C 29.3 °F /  -1.5 °C 29.70in /  1005.6hPa NNW 3.0mph /  4.8km/h 3.0mph /  4.8km/h 91% 0.00in /  0mm
11:24 31.5 °F /  -0.3 °C 29.2 °F /  -1.6 °C 29.70in /  1005.6hPa NW 3.0mph /  4.8km/h 5.0mph /  8km/h 91% 0.00in /  0mm
11:29 31.6 °F /  -0.2 °C 29.5 °F /  -1.4 °C 29.70in /  1005.6hPa NNW 6.0mph /  9.7km/h 6.0mph /  9.7km/h 92% 0.00in /  0mm
11:34 31.5 °F /  -0.3 °C 29.4 °F /  -1.4 °C 29.70in /  1005.6hPa NNW 4.0mph /  6.4km/h 6.0mph /  9.7km/h 92% 0.00in /  0mm
11:39 31.5 °F /  -0.3 °C 29.2 °F /  -1.6 °C 29.70in /  1005.6hPa NNW 3.0mph /  4.8km/h 7.0mph /  11.3km/h 91% 0.00in /  0mm
11:44 31.6 °F /  -0.2 °C 29.3 °F /  -1.5 °C 29.70in /  1005.6hPa North 4.0mph /  6.4km/h 7.0mph /  11.3km/h 91% 0.00in /  0mm
11:49 31.6 °F /  -0.2 °C 29.3 °F /  -1.5 °C 29.69in /  1005.3hPa North 3.0mph /  4.8km/h 6.0mph /  9.7km/h 91% 0.00in /  0mm
11:54 31.6 °F /  -0.2 °C 29.3 °F /  -1.5 °C 29.69in /  1005.3hPa NNW 3.0mph /  4.8km/h 6.0mph /  9.7km/h 91% 0.00in /  0mm
11:59 31.7 °F /  -0.2 °C 29.4 °F /  -1.4 °C 29.69in /  1005.3hPa NNW 3.0mph /  4.8km/h 5.0mph /  8km/h 91% 0.00in /  0mm
12:04 31.7 °F /  -0.2 °C 29.4 °F /  -1.4 °C 29.69in /  1005.3hPa NNW 3.0mph /  4.8km/h 6.0mph /  9.7km/h 91% 0.00in /  0mm
12:09 31.7 °F /  -0.2 °C 29.1 °F /  -1.6 °C 29.69in /  1005.3hPa NW 3.0mph /  4.8km/h 5.0mph /  8km/h 90% 0.00in /  0mm
12:14 31.6 °F /  -0.2 °C 29.3 °F /  -1.5 °C 29.68in /  1005hPa NNW 3.0mph /  4.8km/h 4.0mph /  6.4km/h 91% 0.00in /  0mm
12:19 31.7 °F /  -0.2 °C 29.4 °F /  -1.4 °C 29.68in /  1005hPa Calm   5.0mph /  8km/h 91% 0.00in /  0mm
12:24 31.7 °F /  -0.2 °C 29.4 °F /  -1.4 °C 29.68in /  1005hPa NNW 3.0mph /  4.8km/h 4.0mph /  6.4km/h 91% 0.00in /  0mm
12:29 31.7 °F /  -0.2 °C 29.4 °F /  -1.4 °C 29.68in /  1005hPa NW 2.0mph /  3.2km/h 5.0mph /  8km/h 91% 0.00in /  0mm
12:34 31.7 °F /  -0.2 °C 29.4 °F /  -1.4 °C 29.68in /  1005hPa NNW 3.0mph /  4.8km/h 5.0mph /  8km/h 91% 0.00in /  0mm
12:39 31.7 °F /  -0.2 °C 29.4 °F /  -1.4 °C 29.68in /  1005hPa NW 3.0mph /  4.8km/h 5.0mph /  8km/h 91% 0.00in /  0mm
12:44 31.8 °F /  -0.1 °C 29.5 °F /  -1.4 °C 29.69in /  1005.3hPa NW 3.0mph /  4.8km/h 7.0mph /  11.3km/h 91% 0.00in /  0mm
12:49 32.0 °F /  0 °C 29.7 °F /  -1.3 °C 29.68in /  1005hPa NW 3.0mph /  4.8km/h 7.0mph /  11.3km/h 91% 0.00in /  0mm
12:54 32.0 °F /  0 °C 29.7 °F /  -1.3 °C 29.68in /  1005hPa WNW 3.0mph /  4.8km/h 7.0mph /  11.3km/h 91% 0.00in /  0mm
12:59 31.8 °F /  -0.1 °C 29.5 °F /  -1.4 °C 29.68in /  1005hPa NW 3.0mph /  4.8km/h 7.0mph /  11.3km/h 91% 0.00in /  0mm
13:04 31.9 °F /  -0.1 °C 29.6 °F /  -1.3 °C 29.68in /  1005hPa NW 3.0mph /  4.8km/h 7.0mph /  11.3km/h 91% 0.00in /  0mm
13:09 32.0 °F /  0 °C 29.7 °F /  -1.3 °C 29.68in /  1005hPa WNW 3.0mph /  4.8km/h 6.0mph /  9.7km/h 91% 0.00in /  0mm
13:14 32.1 °F /  0.1 °C 29.5 °F /  -1.4 °C 29.68in /  1005hPa WNW 2.0mph /  3.2km/h 8.0mph /  12.9km/h 90% 0.00in /  0mm
13:19 32.2 °F /  0.1 °C 29.6 °F /  -1.3 °C 29.67in /  1004.6hPa WNW 4.0mph /  6.4km/h 7.0mph /  11.3km/h 90% 0.00in /  0mm
13:24 32.2 °F /  0.1 °C 29.6 °F /  -1.3 °C 29.67in /  1004.6hPa NW 4.0mph /  6.4km/h 5.0mph /  8km/h 90% 0.00in /  0mm
13:29 32.1 °F /  0.1 °C 29.5 °F /  -1.4 °C 29.67in /  1004.6hPa West 1.0mph /  1.6km/h 5.0mph /  8km/h 90% 0.00in /  0mm
13:34 32.0 °F /  0 °C 29.4 °F /  -1.4 °C 29.67in /  1004.6hPa NW 4.0mph /  6.4km/h 6.0mph /  9.7km/h 90% 0.00in /  0mm
13:39 32.1 °F /  0.1 °C 29.5 °F /  -1.4 °C 29.67in /  1004.6hPa NW 3.0mph /  4.8km/h 6.0mph /  9.7km/h 90% 0.00in /  0mm
13:44 32.0 °F /  0 °C 29.4 °F /  -1.4 °C 29.67in /  1004.6hPa NW 2.0mph /  3.2km/h 6.0mph /  9.7km/h 90% 0.00in /  0mm
13:49 31.9 °F /  -0.1 °C 29.3 °F /  -1.5 °C 29.67in /  1004.6hPa NW 3.0mph /  4.8km/h 7.0mph /  11.3km/h 90% 0.00in /  0mm
13:54 32.0 °F /  0 °C 29.4 °F /  -1.4 °C 29.67in /  1004.6hPa NW 3.0mph /  4.8km/h 7.0mph /  11.3km/h 90% 0.00in /  0mm
13:59 32.1 °F /  0.1 °C 29.2 °F /  -1.6 °C 29.67in /  1004.6hPa NNW 3.0mph /  4.8km/h 6.0mph /  9.7km/h 89% 0.00in /  0mm
14:04 32.2 °F /  0.1 °C 29.3 °F /  -1.5 °C 29.67in /  1004.6hPa West 1.0mph /  1.6km/h 6.0mph /  9.7km/h 89% 0.00in /  0mm
14:09 32.3 °F /  0.2 °C 29.1 °F /  -1.6 °C 29.67in /  1004.6hPa WNW 3.0mph /  4.8km/h 6.0mph /  9.7km/h 88% 0.00in /  0mm
14:14 32.4 °F /  0.2 °C 29.2 °F /  -1.6 °C 29.67in /  1004.6hPa WNW 3.0mph /  4.8km/h 8.0mph /  12.9km/h 88% 0.00in /  0mm
14:19 32.6 °F /  0.3 °C 29.4 °F /  -1.4 °C 29.67in /  1004.6hPa WNW 3.0mph /  4.8km/h 8.0mph /  12.9km/h 88% 0.00in /  0mm
14:24 32.6 °F /  0.3 °C 29.4 °F /  -1.4 °C 29.67in /  1004.6hPa NW 2.0mph /  3.2km/h 6.0mph /  9.7km/h 88% 0.00in /  0mm
14:29 32.8 °F /  0.4 °C 29.4 °F /  -1.4 °C 29.67in /  1004.6hPa WNW 4.0mph /  6.4km/h 6.0mph /  9.7km/h 87% 0.00in /  0mm
14:34 32.7 °F /  0.4 °C 29.3 °F /  -1.5 °C 29.67in /  1004.6hPa NNW 4.0mph /  6.4km/h 5.0mph /  8km/h 87% 0.00in /  0mm
14:39 32.8 °F /  0.4 °C 29.4 °F /  -1.4 °C 29.67in /  1004.6hPa WNW 3.0mph /  4.8km/h 5.0mph /  8km/h 87% 0.00in /  0mm
14:44 32.9 °F /  0.5 °C 29.7 °F /  -1.3 °C 29.67in /  1004.6hPa NW 2.0mph /  3.2km/h 5.0mph /  8km/h 88% 0.00in /  0mm
14:49 32.9 °F /  0.5 °C 29.5 °F /  -1.4 °C 29.67in /  1004.6hPa WNW 2.0mph /  3.2km/h 6.0mph /  9.7km/h 87% 0.00in /  0mm
14:54 33.0 °F /  0.6 °C 29.6 °F /  -1.3 °C 29.67in /  1004.6hPa WNW 3.0mph /  4.8km/h 6.0mph /  9.7km/h 87% 0.00in /  0mm
14:59 33.1 °F /  0.6 °C 29.7 °F /  -1.3 °C 29.67in /  1004.6hPa NW 2.0mph /  3.2km/h 6.0mph /  9.7km/h 87% 0.00in /  0mm
15:04 33.2 °F /  0.7 °C 29.8 °F /  -1.2 °C 29.67in /  1004.6hPa NNW 2.0mph /  3.2km/h 6.0mph /  9.7km/h 87% 0.00in /  0mm
15:09 33.3 °F /  0.7 °C 29.8 °F /  -1.2 °C 29.67in /  1004.6hPa WNW 3.0mph /  4.8km/h 4.0mph /  6.4km/h 87% 0.00in /  0mm
15:14 33.3 °F /  0.7 °C 29.8 °F /  -1.2 °C 29.67in /  1004.6hPa West 2.0mph /  3.2km/h 6.0mph /  9.7km/h 87% 0.00in /  0mm
15:19 33.4 °F /  0.8 °C 29.9 °F /  -1.2 °C 29.67in /  1004.6hPa WNW 2.0mph /  3.2km/h 6.0mph /  9.7km/h 87% 0.00in /  0mm
15:24 33.4 °F /  0.8 °C 29.7 °F /  -1.3 °C 29.67in /  1004.6hPa NW 3.0mph /  4.8km/h 5.0mph /  8km/h 86% 0.01in /  0.25mm
15:29 33.5 °F /  0.8 °C 29.8 °F /  -1.2 °C 29.67in /  1004.6hPa West 3.0mph /  4.8km/h 7.0mph /  11.3km/h 86% 0.01in /  0.25mm
15:34 33.5 °F /  0.8 °C 29.5 °F /  -1.4 °C 29.67in /  1004.6hPa WNW 5.0mph /  8km/h 8.0mph /  12.9km/h 85% 0.01in /  0.25mm
15:39 33.6 °F /  0.9 °C 29.0 °F /  -1.7 °C 29.67in /  1004.6hPa NW 6.0mph /  9.7km/h 7.0mph /  11.3km/h 83% 0.01in /  0.25mm
15:44 33.6 °F /  0.9 °C 29.0 °F /  -1.7 °C 29.67in /  1004.6hPa WNW 5.0mph /  8km/h 11.0mph /  17.7km/h 83% 0.01in /  0.25mm
15:49 33.6 °F /  0.9 °C 29.0 °F /  -1.7 °C 29.67in /  1004.6hPa WNW 5.0mph /  8km/h 11.0mph /  17.7km/h 83% 0.01in /  0.25mm
15:54 33.7 °F /  0.9 °C 29.4 °F /  -1.4 °C 29.67in /  1004.6hPa WNW 4.0mph /  6.4km/h 8.0mph /  12.9km/h 84% 0.01in /  0.25mm
15:59 33.7 °F /  0.9 °C 29.1 °F /  -1.6 °C 29.68in /  1005hPa NW 5.0mph /  8km/h 7.0mph /  11.3km/h 83% 0.02in /  0.51mm
16:04 33.7 °F /  0.9 °C 29.1 °F /  -1.6 °C 29.68in /  1005hPa WNW 4.0mph /  6.4km/h 9.0mph /  14.5km/h 83% 0.02in /  0.51mm
16:09 33.7 °F /  0.9 °C 29.4 °F /  -1.4 °C 29.68in /  1005hPa NW 4.0mph /  6.4km/h 7.0mph /  11.3km/h 84% 0.02in /  0.51mm
16:14 33.6 °F /  0.9 °C 29.0 °F /  -1.7 °C 29.68in /  1005hPa NNW 3.0mph /  4.8km/h 7.0mph /  11.3km/h 83% 0.02in /  0.51mm
16:19 33.6 °F /  0.9 °C 29.3 °F /  -1.5 °C 29.68in /  1005hPa WNW 4.0mph /  6.4km/h 6.0mph /  9.7km/h 84% 0.02in /  0.51mm
16:24 33.6 °F /  0.9 °C 29.3 °F /  -1.5 °C 29.68in /  1005hPa NW 5.0mph /  8km/h 6.0mph /  9.7km/h 84% 0.01in /  0.25mm
16:29 33.6 °F /  0.9 °C 29.3 °F /  -1.5 °C 29.68in /  1005hPa NNW 3.0mph /  4.8km/h 6.0mph /  9.7km/h 84% 0.01in /  0.25mm
16:34 33.5 °F /  0.8 °C 29.2 °F /  -1.6 °C 29.68in /  1005hPa NW 4.0mph /  6.4km/h 6.0mph /  9.7km/h 84% 0.01in /  0.25mm
16:39 33.5 °F /  0.8 °C 29.2 °F /  -1.6 °C 29.69in /  1005.3hPa Calm   5.0mph /  8km/h 84% 0.01in /  0.25mm
16:44 33.5 °F /  0.8 °C 29.2 °F /  -1.6 °C 29.69in /  1005.3hPa NW 1.0mph /  1.6km/h 5.0mph /  8km/h 84% 0.01in /  0.25mm
16:49 33.5 °F /  0.8 °C 29.2 °F /  -1.6 °C 29.69in /  1005.3hPa NW 2.0mph /  3.2km/h 6.0mph /  9.7km/h 84% 0.01in /  0.25mm
16:54 33.5 °F /  0.8 °C 29.5 °F /  -1.4 °C 29.69in /  1005.3hPa NW 3.0mph /  4.8km/h 6.0mph /  9.7km/h 85% 0.01in /  0.25mm
16:59 33.5 °F /  0.8 °C 29.5 °F /  -1.4 °C 29.69in /  1005.3hPa NW 3.0mph /  4.8km/h 6.0mph /  9.7km/h 85% 0.00in /  0mm
17:04 33.5 °F /  0.8 °C 29.5 °F /  -1.4 °C 29.69in /  1005.3hPa NW 3.0mph /  4.8km/h 6.0mph /  9.7km/h 85% 0.00in /  0mm
17:09 33.5 °F /  0.8 °C 29.5 °F /  -1.4 °C 29.69in /  1005.3hPa NW 3.0mph /  4.8km/h 6.0mph /  9.7km/h 85% 0.00in /  0mm
17:14 33.4 °F /  0.8 °C 29.4 °F /  -1.4 °C 29.69in /  1005.3hPa NW 2.0mph /  3.2km/h 5.0mph /  8km/h 85% 0.00in /  0mm
17:19 33.4 °F /  0.8 °C 29.4 °F /  -1.4 °C 29.69in /  1005.3hPa WNW 2.0mph /  3.2km/h 6.0mph /  9.7km/h 85% 0.00in /  0mm
17:24 33.4 °F /  0.8 °C 29.4 °F /  -1.4 °C 29.69in /  1005.3hPa West 1.0mph /  1.6km/h 7.0mph /  11.3km/h 85% 0.00in /  0mm
17:29 33.3 °F /  0.7 °C 29.3 °F /  -1.5 °C 29.70in /  1005.6hPa NNW 1.0mph /  1.6km/h 4.0mph /  6.4km/h 85% 0.00in /  0mm
17:34 33.4 °F /  0.8 °C 29.4 °F /  -1.4 °C 29.70in /  1005.6hPa NNW 1.0mph /  1.6km/h 5.0mph /  8km/h 85% 0.00in /  0mm
17:39 33.3 °F /  0.7 °C 29.3 °F /  -1.5 °C 29.70in /  1005.6hPa NNW 2.0mph /  3.2km/h 4.0mph /  6.4km/h 85% 0.01in /  0.25mm
17:44 33.3 °F /  0.7 °C 29.3 °F /  -1.5 °C 29.70in /  1005.6hPa NNW 1.0mph /  1.6km/h 3.0mph /  4.8km/h 85% 0.01in /  0.25mm
17:49 33.3 °F /  0.7 °C 29.6 °F /  -1.3 °C 29.70in /  1005.6hPa NNW 1.0mph /  1.6km/h 3.0mph /  4.8km/h 86% 0.01in /  0.25mm
17:54 33.2 °F /  0.7 °C 29.5 °F /  -1.4 °C 29.70in /  1005.6hPa NNW 2.0mph /  3.2km/h 7.0mph /  11.3km/h 86% 0.01in /  0.25mm
17:59 33.2 °F /  0.7 °C 29.2 °F /  -1.6 °C 29.70in /  1005.6hPa NW 3.0mph /  4.8km/h 7.0mph /  11.3km/h 85% 0.01in /  0.25mm
18:04 33.1 °F /  0.6 °C 29.1 °F /  -1.6 °C 29.70in /  1005.6hPa NNW 2.0mph /  3.2km/h 7.0mph /  11.3km/h 85% 0.01in /  0.25mm
18:09 33.1 °F /  0.6 °C 29.1 °F /  -1.6 °C 29.70in /  1005.6hPa NW 1.0mph /  1.6km/h 4.0mph /  6.4km/h 85% 0.01in /  0.25mm
18:14 33.0 °F /  0.6 °C 29.0 °F /  -1.7 °C 29.70in /  1005.6hPa NW 4.0mph /  6.4km/h 6.0mph /  9.7km/h 85% 0.01in /  0.25mm
18:19 33.0 °F /  0.6 °C 29.0 °F /  -1.7 °C 29.70in /  1005.6hPa NNW 3.0mph /  4.8km/h 6.0mph /  9.7km/h 85% 0.01in /  0.25mm
18:24 33.0 °F /  0.6 °C 29.3 °F /  -1.5 °C 29.70in /  1005.6hPa NW 1.0mph /  1.6km/h 6.0mph /  9.7km/h 86% 0.01in /  0.25mm
18:29 33.0 °F /  0.6 °C 29.3 °F /  -1.5 °C 29.71in /  1006hPa NNW 5.0mph /  8km/h 5.0mph /  8km/h 86% 0.01in /  0.25mm
18:34 32.9 °F /  0.5 °C 29.2 °F /  -1.6 °C 29.71in /  1006hPa WNW 5.0mph /  8km/h 5.0mph /  8km/h 86% 0.01in /  0.25mm
18:39 32.9 °F /  0.5 °C 29.2 °F /  -1.6 °C 29.71in /  1006hPa NNW 2.0mph /  3.2km/h 6.0mph /  9.7km/h 86% 0.00in /  0mm
18:44 32.8 °F /  0.4 °C 29.1 °F /  -1.6 °C 29.71in /  1006hPa NNW 2.0mph /  3.2km/h 4.0mph /  6.4km/h 86% 0.00in /  0mm
18:49 32.8 °F /  0.4 °C 29.1 °F /  -1.6 °C 29.71in /  1006hPa NNW 3.0mph /  4.8km/h 5.0mph /  8km/h 86% 0.00in /  0mm
18:54 32.8 °F /  0.4 °C 29.1 °F /  -1.6 °C 29.71in /  1006hPa NNW 3.0mph /  4.8km/h 5.0mph /  8km/h 86% 0.00in /  0mm
18:59 32.8 °F /  0.4 °C 29.4 °F /  -1.4 °C 29.72in /  1006.3hPa NW 2.0mph /  3.2km/h 5.0mph /  8km/h 87% 0.00in /  0mm
19:04 32.7 °F /  0.4 °C 29.3 °F /  -1.5 °C 29.72in /  1006.3hPa NW 2.0mph /  3.2km/h 5.0mph /  8km/h 87% 0.00in /  0mm
19:09 32.7 °F /  0.4 °C 29.3 °F /  -1.5 °C 29.72in /  1006.3hPa NW 2.0mph /  3.2km/h 5.0mph /  8km/h 87% 0.00in /  0mm
19:14 32.6 °F /  0.3 °C 29.2 °F /  -1.6 °C 29.72in /  1006.3hPa NNW 3.0mph /  4.8km/h 5.0mph /  8km/h 87% 0.00in /  0mm
19:19 32.6 °F /  0.3 °C 29.2 °F /  -1.6 °C 29.72in /  1006.3hPa NW 1.0mph /  1.6km/h 5.0mph /  8km/h 87% 0.00in /  0mm
19:24 32.6 °F /  0.3 °C 29.2 °F /  -1.6 °C 29.72in /  1006.3hPa WNW 2.0mph /  3.2km/h 7.0mph /  11.3km/h 87% 0.00in /  0mm
19:29 32.5 °F /  0.3 °C 29.1 °F /  -1.6 °C 29.73in /  1006.7hPa WNW 3.0mph /  4.8km/h 7.0mph /  11.3km/h 87% 0.00in /  0mm
19:34 32.5 °F /  0.3 °C 29.1 °F /  -1.6 °C 29.73in /  1006.7hPa WNW 2.0mph /  3.2km/h 7.0mph /  11.3km/h 87% 0.00in /  0mm
19:39 32.5 °F /  0.3 °C 29.1 °F /  -1.6 °C 29.73in /  1006.7hPa WNW 3.0mph /  4.8km/h 7.0mph /  11.3km/h 87% 0.00in /  0mm
19:44 32.5 °F /  0.3 °C 29.1 °F /  -1.6 °C 29.72in /  1006.3hPa NNW 1.0mph /  1.6km/h 6.0mph /  9.7km/h 87% 0.00in /  0mm
19:49 32.5 °F /  0.3 °C 29.1 °F /  -1.6 °C 29.73in /  1006.7hPa NW 1.0mph /  1.6km/h 4.0mph /  6.4km/h 87% 0.00in /  0mm
19:54 32.5 °F /  0.3 °C 29.3 °F /  -1.5 °C 29.73in /  1006.7hPa WNW 2.0mph /  3.2km/h 5.0mph /  8km/h 88% 0.00in /  0mm
19:59 32.5 °F /  0.3 °C 29.3 °F /  -1.5 °C 29.72in /  1006.3hPa WNW 2.0mph /  3.2km/h 5.0mph /  8km/h 88% 0.00in /  0mm
20:04 32.5 °F /  0.3 °C 29.3 °F /  -1.5 °C 29.72in /  1006.3hPa West 1.0mph /  1.6km/h 3.0mph /  4.8km/h 88% 0.00in /  0mm
20:09 32.5 °F /  0.3 °C 29.3 °F /  -1.5 °C 29.73in /  1006.7hPa West 3.0mph /  4.8km/h 4.0mph /  6.4km/h 88% 0.00in /  0mm
20:14 32.4 °F /  0.2 °C 29.2 °F /  -1.6 °C 29.73in /  1006.7hPa WNW 1.0mph /  1.6km/h 4.0mph /  6.4km/h 88% 0.00in /  0mm
20:19 32.5 °F /  0.3 °C 29.3 °F /  -1.5 °C 29.73in /  1006.7hPa WNW 3.0mph /  4.8km/h 4.0mph /  6.4km/h 88% 0.00in /  0mm
20:24 32.5 °F /  0.3 °C 29.3 °F /  -1.5 °C 29.73in /  1006.7hPa WNW 2.0mph /  3.2km/h 4.0mph /  6.4km/h 88% 0.00in /  0mm
20:29 32.5 °F /  0.3 °C 29.3 °F /  -1.5 °C 29.72in /  1006.3hPa WNW 2.0mph /  3.2km/h 5.0mph /  8km/h 88% 0.00in /  0mm
20:34 32.4 °F /  0.2 °C 29.2 °F /  -1.6 °C 29.72in /  1006.3hPa WNW 2.0mph /  3.2km/h 5.0mph /  8km/h 88% 0.00in /  0mm
20:39 32.5 °F /  0.3 °C 29.3 °F /  -1.5 °C 29.72in /  1006.3hPa West 2.0mph /  3.2km/h 4.0mph /  6.4km/h 88% 0.00in /  0mm
20:44 32.5 °F /  0.3 °C 29.3 °F /  -1.5 °C 29.73in /  1006.7hPa West 3.0mph /  4.8km/h 5.0mph /  8km/h 88% 0.00in /  0mm
20:49 32.5 °F /  0.3 °C 29.3 °F /  -1.5 °C 29.73in /  1006.7hPa WNW 2.0mph /  3.2km/h 5.0mph /  8km/h 88% 0.00in /  0mm
20:54 32.5 °F /  0.3 °C 29.3 °F /  -1.5 °C 29.73in /  1006.7hPa WSW 2.0mph /  3.2km/h 5.0mph /  8km/h 88% 0.00in /  0mm
20:59 32.5 °F /  0.3 °C 29.3 °F /  -1.5 °C 29.72in /  1006.3hPa Calm   5.0mph /  8km/h 88% 0.00in /  0mm
21:04 32.6 °F /  0.3 °C 29.4 °F /  -1.4 °C 29.72in /  1006.3hPa WSW 1.0mph /  1.6km/h 4.0mph /  6.4km/h 88% 0.00in /  0mm
21:09 32.5 °F /  0.3 °C 29.3 °F /  -1.5 °C 29.72in /  1006.3hPa West 3.0mph /  4.8km/h 4.0mph /  6.4km/h 88% 0.00in /  0mm
21:14 32.6 °F /  0.3 °C 29.7 °F /  -1.3 °C 29.72in /  1006.3hPa West 2.0mph /  3.2km/h 4.0mph /  6.4km/h 89% 0.00in /  0mm
21:19 32.6 °F /  0.3 °C 29.7 °F /  -1.3 °C 29.73in /  1006.7hPa WSW 2.0mph /  3.2km/h 3.0mph /  4.8km/h 89% 0.00in /  0mm
21:24 32.6 °F /  0.3 °C 29.7 °F /  -1.3 °C 29.72in /  1006.3hPa Calm   2.0mph /  3.2km/h 89% 0.00in /  0mm
21:29 32.7 °F /  0.4 °C 29.8 °F /  -1.2 °C 29.72in /  1006.3hPa WSW 1.0mph /  1.6km/h 4.0mph /  6.4km/h 89% 0.00in /  0mm
21:34 32.8 °F /  0.4 °C 29.9 °F /  -1.2 °C 29.72in /  1006.3hPa WSW 2.0mph /  3.2km/h 4.0mph /  6.4km/h 89% 0.00in /  0mm
21:39 32.7 °F /  0.4 °C 29.8 °F /  -1.2 °C 29.72in /  1006.3hPa WSW 2.0mph /  3.2km/h 4.0mph /  6.4km/h 89% 0.00in /  0mm
21:44 32.8 °F /  0.4 °C 29.9 °F /  -1.2 °C 29.72in /  1006.3hPa WSW 3.0mph /  4.8km/h 6.0mph /  9.7km/h 89% 0.00in /  0mm
21:49 32.9 °F /  0.5 °C 30.0 °F /  -1.1 °C 29.72in /  1006.3hPa WSW 3.0mph /  4.8km/h 6.0mph /  9.7km/h 89% 0.00in /  0mm
21:54 33.0 °F /  0.6 °C 30.1 °F /  -1.1 °C 29.71in /  1006hPa WSW 3.0mph /  4.8km/h 8.0mph /  12.9km/h 89% 0.00in /  0mm
21:59 33.0 °F /  0.6 °C 30.1 °F /  -1.1 °C 29.72in /  1006.3hPa West 3.0mph /  4.8km/h 8.0mph /  12.9km/h 89% 0.00in /  0mm
22:04 33.1 °F /  0.6 °C 30.2 °F /  -1 °C 29.72in /  1006.3hPa West 4.0mph /  6.4km/h 7.0mph /  11.3km/h 89% 0.00in /  0mm
22:09 33.3 °F /  0.7 °C 30.1 °F /  -1.1 °C 29.72in /  1006.3hPa West 6.0mph /  9.7km/h 9.0mph /  14.5km/h 88% 0.00in /  0mm
22:14 33.3 °F /  0.7 °C 30.1 °F /  -1.1 °C 29.72in /  1006.3hPa West 2.0mph /  3.2km/h 8.0mph /  12.9km/h 88% 0.00in /  0mm
22:19 33.5 °F /  0.8 °C 30.3 °F /  -0.9 °C 29.72in /  1006.3hPa WSW 2.0mph /  3.2km/h 8.0mph /  12.9km/h 88% 0.00in /  0mm
22:24 33.5 °F /  0.8 °C 30.0 °F /  -1.1 °C 29.72in /  1006.3hPa NNW 3.0mph /  4.8km/h 8.0mph /  12.9km/h 87% 0.00in /  0mm
22:29 33.6 °F /  0.9 °C 30.1 °F /  -1.1 °C 29.72in /  1006.3hPa WSW 4.0mph /  6.4km/h 10.0mph /  16.1km/h 87% 0.00in /  0mm
22:34 33.6 °F /  0.9 °C 30.1 °F /  -1.1 °C 29.72in /  1006.3hPa West 4.0mph /  6.4km/h 10.0mph /  16.1km/h 87% 0.00in /  0mm
22:39 33.6 °F /  0.9 °C 29.9 °F /  -1.2 °C 29.72in /  1006.3hPa West 4.0mph /  6.4km/h 9.0mph /  14.5km/h 86% 0.00in /  0mm
22:44 33.7 °F /  0.9 °C 30.0 °F /  -1.1 °C 29.72in /  1006.3hPa West 4.0mph /  6.4km/h 9.0mph /  14.5km/h 86% 0.00in /  0mm
22:49 33.7 °F /  0.9 °C 30.0 °F /  -1.1 °C 29.71in /  1006hPa West 3.0mph /  4.8km/h 8.0mph /  12.9km/h 86% 0.00in /  0mm
22:54 33.6 °F /  0.9 °C 29.9 °F /  -1.2 °C 29.71in /  1006hPa West 12.0mph /  19.3km/h 12.0mph /  19.3km/h 86% 0.00in /  0mm
22:59 33.7 °F /  0.9 °C 29.7 °F /  -1.3 °C 29.72in /  1006.3hPa West 4.0mph /  6.4km/h 12.0mph /  19.3km/h 85% 0.00in /  0mm
23:04 33.7 °F /  0.9 °C 29.7 °F /  -1.3 °C 29.72in /  1006.3hPa West 5.0mph /  8km/h 12.0mph /  19.3km/h 85% 0.00in /  0mm
23:09 33.7 °F /  0.9 °C 29.4 °F /  -1.4 °C 29.72in /  1006.3hPa West 5.0mph /  8km/h 10.0mph /  16.1km/h 84% 0.00in /  0mm
23:14 33.7 °F /  0.9 °C 29.4 °F /  -1.4 °C 29.71in /  1006hPa West 4.0mph /  6.4km/h 9.0mph /  14.5km/h 84% 0.00in /  0mm
23:19 33.7 °F /  0.9 °C 29.4 °F /  -1.4 °C 29.71in /  1006hPa WNW 3.0mph /  4.8km/h 8.0mph /  12.9km/h 84% 0.00in /  0mm
23:24 33.7 °F /  0.9 °C 29.4 °F /  -1.4 °C 29.71in /  1006hPa WNW 4.0mph /  6.4km/h 7.0mph /  11.3km/h 84% 0.00in /  0mm
23:29 33.8 °F /  1 °C 29.2 °F /  -1.6 °C 29.71in /  1006hPa West 2.0mph /  3.2km/h 9.0mph /  14.5km/h 83% 0.00in /  0mm
23:34 33.8 °F /  1 °C 29.2 °F /  -1.6 °C 29.71in /  1006hPa West 4.0mph /  6.4km/h 9.0mph /  14.5km/h 83% 0.00in /  0mm
23:39 33.8 °F /  1 °C 29.5 °F /  -1.4 °C 29.71in /  1006hPa West 3.0mph /  4.8km/h 7.0mph /  11.3km/h 84% 0.00in /  0mm
23:44 33.8 °F /  1 °C 29.5 °F /  -1.4 °C 29.71in /  1006hPa West 4.0mph /  6.4km/h 8.0mph /  12.9km/h 84% 0.00in /  0mm
23:49 33.8 °F /  1 °C 29.5 °F /  -1.4 °C 29.71in /  1006hPa WSW 4.0mph /  6.4km/h 10.0mph /  16.1km/h 84% 0.00in /  0mm
23:54 33.9 °F /  1.1 °C 29.6 °F /  -1.3 °C 29.70in /  1005.6hPa WSW 1.0mph /  1.6km/h 6.0mph /  9.7km/h 84% 0.00in /  0mm
23:59 33.8 °F /  1 °C 29.5 °F /  -1.4 °C 29.70in /  1005.6hPa West 3.0mph /  4.8km/h 5.0mph /  8km/h 84% 0.00in /  0mm
Buffalo, New York, USA
Compliments of Weather Underground - 2.5 mb